Time;durP1;ratioP1;P1;durP2;ratioP2;P2;SDS_P1;SDS_P2;PMS_P1;PMS_P2;Temp;Humidity;BMP_temperature;BMP_pressure;BME280_temperature;BME280_humidity;BME280_pressure;Samples;Min_cycle;Max_cycle;Signal;HPM_P1;HPM_P2
2022/01/16 00:04:05;;;;;;;99.43;28.60;;;2.60;99.90;;;;;;5094381;27;19924;-86
2022/01/16 00:04:53;;;;;;;89.80;29.42;;;2.10;99.90;;;;;;5105499;28;20135;-86
2022/01/16 00:07:19;;;;;;;81.53;24.88;;;2.10;99.90;;;;;;5111420;28;20118;-82
2022/01/16 00:09:44;;;;;;;89.25;27.88;;;2.10;99.90;;;;;;5093056;28;20044;-86
2022/01/16 00:12:11;;;;;;;92.10;27.55;;;2.10;99.90;;;;;;5076828;28;20540;-84
2022/01/16 00:14:37;;;;;;;95.80;28.88;;;2.00;99.90;;;;;;5060345;27;20051;-86
2022/01/16 00:17:04;;;;;;;86.88;27.02;;;2.00;99.90;;;;;;5093231;28;20047;-87
2022/01/16 00:19:29;;;;;;;89.93;26.48;;;2.00;99.90;;;;;;5092514;28;20056;-85
2022/01/16 00:21:55;;;;;;;94.05;26.85;;;2.00;99.90;;;;;;5111502;28;20044;-85
2022/01/16 00:24:21;;;;;;;79.55;26.52;;;2.00;99.90;;;;;;5092568;28;20047;-82
2022/01/16 00:26:47;;;;;;;76.15;24.27;;;2.00;99.90;;;;;;5110993;28;20465;-87
2022/01/16 00:29:13;;;;;;;75.57;25.33;;;2.50;99.90;;;;;;5109810;28;20122;-87
2022/01/16 00:31:40;;;;;;;72.22;23.10;;;1.90;99.90;;;;;;5122160;27;20138;-87
2022/01/16 00:34:08;;;;;;;80.18;26.30;;;1.90;99.90;;;;;;5095712;27;20495;-87
2022/01/16 00:36:34;;;;;;;75.03;22.10;;;2.00;99.90;;;;;;5113564;27;20043;-88
2022/01/16 00:39:00;;;;;;;84.70;25.45;;;1.80;99.90;;;;;;5089999;27;20051;-87
2022/01/16 00:41:26;;;;;;;70.35;22.40;;;1.80;99.90;;;;;;5110421;28;20077;-84
2022/01/16 00:43:53;;;;;;;73.85;23.17;;;1.80;99.90;;;;;;5091768;28;20157;-86
2022/01/16 00:46:20;;;;;;;70.97;24.10;;;1.80;99.90;;;;;;5092186;28;20051;-87
2022/01/16 00:48:47;;;;;;;76.43;22.95;;;1.90;99.90;;;;;;5091985;28;20079;-84
2022/01/16 00:51:15;;;;;;;78.93;24.38;;;1.80;99.90;;;;;;5093179;28;20087;-86
2022/01/16 00:53:43;;;;;;;75.00;23.77;;;1.70;99.90;;;;;;5121750;28;20128;-87
2022/01/16 00:56:09;;;;;;;67.60;22.70;;;1.70;99.90;;;;;;5113238;28;20051;-86
2022/01/16 00:58:35;;;;;;;70.00;22.88;;;1.70;99.90;;;;;;5128150;28;20058;-84
2022/01/16 01:01:00;;;;;;;76.03;23.02;;;1.70;99.90;;;;;;5091984;28;20052;-86
2022/01/16 01:03:26;;;;;;;69.45;21.73;;;1.60;99.90;;;;;;5081625;28;20051;-82
2022/01/16 01:05:52;;;;;;;78.90;22.80;;;1.60;99.90;;;;;;5093015;28;20043;-86
2022/01/16 01:08:18;;;;;;;84.55;23.88;;;1.70;99.90;;;;;;5110770;28;20043;-85
2022/01/16 01:10:48;;;;;;;70.50;22.23;;;1.60;99.90;;;;;;5092095;28;20549;-85
2022/01/16 01:13:32;;;;;;;86.95;23.67;;;1.60;99.90;;;;;;5111764;28;20377;-86
2022/01/16 01:16:03;;;;;;;83.30;23.73;;;1.60;99.90;;;;;;5085405;28;20057;-86
2022/01/16 01:18:31;;;;;;;78.22;22.60;;;1.50;99.90;;;;;;5130842;28;20445;-81
2022/01/16 01:20:58;;;;;;;88.25;25.75;;;1.80;99.90;;;;;;5113177;28;20047;-86
2022/01/16 01:23:24;;;;;;;74.65;21.42;;;1.60;99.90;;;;;;5129098;28;20322;-86
2022/01/16 01:25:50;;;;;;;77.65;22.45;;;1.60;99.90;;;;;;5084325;28;20526;-86
2022/01/16 01:28:16;;;;;;;75.35;22.90;;;1.60;99.90;;;;;;5103357;28;20104;-86
2022/01/16 01:30:44;;;;;;;;;;;1.50;99.90;;;;;;5118718;28;20055;-86
2022/01/16 01:33:13;;;;;;;77.53;23.58;;;1.50;99.90;;;;;;5111246;28;19931;-86
2022/01/16 01:35:39;;;;;;;77.78;22.45;;;1.50;99.90;;;;;;5111241;28;20617;-86
2022/01/16 01:38:11;;;;;;;86.22;24.02;;;1.50;99.90;;;;;;5112690;28;20043;-87
2022/01/16 01:40:39;;;;;;;80.85;21.92;;;1.50;99.90;;;;;;5112095;28;20047;-87
2022/01/16 01:51:02;;;;;;;79.78;22.23;;;2.40;99.90;;;;;;5112573;28;20043;-86
2022/01/16 01:51:32;;;;;;;102.38;28.25;;;1.50;99.90;;;;;;5116653;27;20054;-83
2022/01/16 01:54:00;;;;;;;84.32;24.73;;;1.50;99.90;;;;;;5116058;27;20138;-85
2022/01/16 01:56:26;;;;;;;86.45;24.23;;;1.50;99.90;;;;;;5116379;27;20051;-86
2022/01/16 01:58:54;;;;;;;76.32;22.35;;;2.10;99.90;;;;;;5114399;27;20043;-86
2022/01/16 02:01:21;;;;;;;79.22;24.17;;;1.40;99.90;;;;;;5134190;27;20116;-86
2022/01/16 02:03:48;;;;;;;80.03;24.20;;;2.10;99.90;;;;;;5116068;27;20043;-86
2022/01/16 02:06:32;;;;;;;79.85;24.20;;;1.30;99.90;;;;;;5116407;27;20054;-85
2022/01/16 02:09:00;;;;;;;83.72;24.90;;;1.40;99.90;;;;;;5133750;27;20095;-85
2022/01/16 02:11:29;;;;;;;98.93;27.67;;;1.30;99.90;;;;;;5115482;27;20087;-87
2022/01/16 02:14:23;;;;;;;86.68;26.52;;;1.30;99.90;;;;;;5110622;28;20044;-84
2022/01/16 02:35:53;;;;;;;85.25;22.42;;;2.20;99.90;;;;;;5115411;27;20054;-85
2022/01/16 02:38:21;;;;;;;103.35;25.10;;;1.20;99.90;;;;;;5115270;27;20128;-85
2022/01/16 02:41:00;;;;;;;100.65;25.80;;;1.20;99.90;;;;;;5133195;27;20039;-87
2022/01/16 02:43:32;;;;;;;108.63;27.23;;;1.60;99.90;;;;;;5133257;27;20047;-86
2022/01/16 02:46:35;;;;;;;110.10;25.80;;;1.30;99.90;;;;;;5093359;28;20647;-85
2022/01/16 02:48:48;;;;;;;97.90;24.30;;;1.20;99.90;;;;;;5094181;28;20550;-87
2022/01/16 02:51:27;;;;;;;94.43;23.65;;;1.20;99.90;;;;;;5124917;27;20056;-86
2022/01/16 02:53:53;;;;;;;110.30;27.10;;;1.20;99.90;;;;;;5094343;28;20400;-86
2022/01/16 02:56:20;;;;;;;112.15;25.75;;;2.10;99.90;;;;;;5078027;28;20051;-85
2022/01/16 02:58:47;;;;;;;127.05;29.95;;;1.20;99.90;;;;;;5128611;27;20047;-86
2022/01/16 03:01:13;;;;;;;111.70;27.50;;;1.20;99.90;;;;;;5097567;27;20046;-85
2022/01/16 03:03:39;;;;;;;;;;;1.30;99.90;;;;;;5123643;27;20057;-82
2022/01/16 03:06:05;;;;;;;134.32;29.90;;;1.30;99.90;;;;;;5094988;28;19978;-85
2022/01/16 03:08:31;;;;;;;125.38;28.38;;;1.90;99.90;;;;;;5078190;27;20090;-86
2022/01/16 03:13:31;;;;;;;130.05;30.80;;;1.90;99.90;;;;;;5077910;28;20707;-86
2022/01/16 03:15:57;;;;;;;160.77;32.50;;;1.30;99.90;;;;;;5093118;28;20044;-86
2022/01/16 03:23:33;;;;;;;139.20;31.98;;;1.40;99.90;;;;;;5101535;27;20047;-86
2022/01/16 03:26:00;;;;;;;144.10;32.72;;;1.50;99.90;;;;;;5114088;27;20254;-87
2022/01/16 03:28:26;;;;;;;139.45;32.03;;;1.50;99.90;;;;;;5132395;27;20043;-87
2022/01/16 03:30:53;;;;;;;153.65;34.78;;;1.50;99.90;;;;;;5112835;27;20055;-86
2022/01/16 03:33:20;;;;;;;153.85;32.25;;;2.30;99.90;;;;;;5097727;28;20078;-87
2022/01/16 03:35:47;;;;;;;147.65;31.88;;;1.60;99.90;;;;;;5111881;28;20047;-86
2022/01/16 03:38:13;;;;;;;163.52;32.58;;;1.60;99.90;;;;;;5094218;28;20058;-86
2022/01/16 03:40:39;;;;;;;;;;;1.60;99.90;;;;;;5112638;28;20094;-87
2022/01/16 03:43:12;;;;;;;169.57;35.60;;;1.60;99.90;;;;;;5093547;28;20367;-86
2022/01/16 03:45:40;;;;;;;150.45;33.58;;;1.60;99.90;;;;;;5085996;28;20060;-86
2022/01/16 03:48:06;;;;;;;142.63;29.25;;;1.60;99.90;;;;;;5122661;27;20067;-86
2022/01/16 03:50:32;;;;;;;168.73;32.72;;;2.50;99.90;;;;;;5115858;27;20119;-87
2022/01/16 03:52:57;;;;;;;147.07;31.92;;;1.60;99.90;;;;;;5076580;28;20055;-85
2022/01/16 03:55:23;;;;;;;190.25;35.55;;;1.60;99.90;;;;;;5089146;27;20139;-87
2022/01/16 03:57:49;;;;;;;151.88;32.03;;;1.60;99.90;;;;;;5109234;28;20051;-86
2022/01/16 04:00:15;;;;;;;177.65;33.95;;;1.70;99.90;;;;;;5107937;27;20079;-85
2022/01/16 04:02:40;;;;;;;179.02;33.65;;;1.70;99.90;;;;;;5114433;27;20055;-87
2022/01/16 04:05:06;;;;;;;188.52;37.60;;;1.70;99.90;;;;;;5132007;27;20061;-86
2022/01/16 04:07:35;;;;;;;;;;;1.70;99.90;;;;;;5109050;28;20035;-87
2022/01/16 04:10:03;;;;;;;168.80;32.42;;;1.70;99.90;;;;;;5076385;28;20276;-87
2022/01/16 04:12:30;;;;;;;165.77;33.75;;;1.70;99.90;;;;;;5098415;27;20436;-86
2022/01/16 04:17:23;;;;;;;176.75;33.28;;;1.80;99.90;;;;;;5110694;27;19935;-87
2022/01/16 04:19:50;;;;;;;165.63;32.67;;;1.80;99.90;;;;;;5083968;28;20051;-86
2022/01/16 04:22:16;;;;;;;173.48;33.05;;;2.00;99.90;;;;;;5097820;28;20055;-88
2022/01/16 04:24:43;;;;;;;174.43;35.55;;;1.80;99.90;;;;;;5096159;27;20039;-88
2022/01/16 04:27:10;;;;;;;175.60;33.30;;;2.10;99.90;;;;;;5081601;28;20566;-85
2022/01/16 04:29:37;;;;;;;169.23;33.88;;;1.80;99.90;;;;;;5091874;28;20077;-87
2022/01/16 04:32:03;;;;;;;142.70;30.60;;;2.20;99.90;;;;;;5092521;28;20043;-87
2022/01/16 04:34:29;;;;;;;;;;;1.90;99.90;;;;;;5104487;27;20054;-86
2022/01/16 04:36:54;;;;;;;150.85;33.28;;;2.10;99.90;;;;;;5113007;27;19923;-87
2022/01/16 04:39:21;;;;;;;148.40;32.10;;;1.90;99.90;;;;;;5121414;27;20055;-88
2022/01/16 04:44:31;;;;;;;154.73;33.00;;;1.90;99.90;;;;;;5091771;28;20052;-87
2022/01/16 04:46:57;;;;;;;152.60;32.65;;;2.40;99.90;;;;;;5091940;28;20396;-87
2022/01/16 04:49:23;;;;;;;140.57;34.28;;;2.50;99.90;;;;;;5078747;27;20051;-86
2022/01/16 04:51:49;;;;;;;150.32;33.33;;;2.00;99.90;;;;;;5131830;27;20120;-87
2022/01/16 04:54:15;;;;;;;155.65;33.97;;;2.60;99.90;;;;;;5078953;28;20129;-88
2022/01/16 04:56:41;;;;;;;168.82;35.40;;;2.00;99.90;;;;;;5113369;28;20047;-87
2022/01/16 04:59:07;;;;;;;183.73;37.20;;;2.00;99.90;;;;;;5111288;28;20074;-85
2022/01/16 05:01:33;;;;;;;151.13;33.25;;;2.00;99.90;;;;;;5113192;28;20055;-88
2022/01/16 05:03:58;;;;;;;;;;;2.00;99.90;;;;;;5102366;28;20136;-88
2022/01/16 05:06:24;;;;;;;144.75;31.75;;;2.90;99.90;;;;;;5113290;28;20402;-87
2022/01/16 05:08:50;;;;;;;161.45;35.65;;;2.10;99.90;;;;;;5113101;28;20078;-86
2022/01/16 05:11:21;;;;;;;155.13;33.47;;;2.60;99.90;;;;;;5092085;28;20365;-88
2022/01/16 05:18:57;;;;;;;167.05;35.40;;;2.00;99.90;;;;;;5104057;28;20399;-87
2022/01/16 05:21:23;;;;;;;137.55;33.22;;;2.00;99.90;;;;;;5131512;28;20050;-87
2022/01/16 05:23:49;;;;;;;151.05;34.60;;;2.10;99.90;;;;;;5115095;27;20472;-86
2022/01/16 05:26:17;;;;;;;;;;;2.50;99.90;;;;;;5094915;28;20048;-86
2022/01/16 05:28:43;;;;;;;160.50;34.88;;;2.40;99.90;;;;;;5097780;27;20419;-87
2022/01/16 05:31:09;;;;;;;150.38;34.42;;;2.20;99.90;;;;;;5094728;28;20189;-86
2022/01/16 05:33:35;;;;;;;144.07;32.65;;;2.10;99.90;;;;;;5107066;27;20051;-85
2022/01/16 05:36:01;;;;;;;152.02;32.90;;;2.20;99.90;;;;;;5134312;27;20078;-85
2022/01/16 05:38:27;;;;;;;132.05;32.95;;;2.20;99.90;;;;;;5099907;27;20047;-88
2022/01/16 05:40:52;;;;;;;156.70;35.65;;;2.50;99.90;;;;;;5128477;27;20548;-86
2022/01/16 05:43:18;;;;;;;153.52;36.15;;;2.90;99.90;;;;;;5095375;28;20135;-87
2022/01/16 05:45:44;;;;;;;128.48;33.05;;;2.10;99.90;;;;;;5095183;28;20051;-87
2022/01/16 05:48:09;;;;;;;140.00;31.80;;;2.60;99.90;;;;;;5097715;28;20055;-87
2022/01/16 05:50:35;;;;;;;138.13;33.92;;;2.10;99.90;;;;;;5106100;28;20120;-86
2022/01/16 05:53:02;;;;;;;148.52;34.85;;;2.40;99.90;;;;;;5085295;28;20054;-88
2022/01/16 05:55:36;;;;;;;135.40;31.70;;;2.10;99.90;;;;;;5096037;28;20043;-85
2022/01/16 05:58:06;;;;;;;140.55;33.55;;;2.20;99.90;;;;;;5095700;28;20499;-87
2022/01/16 06:00:33;;;;;;;136.60;32.15;;;2.20;99.90;;;;;;5094337;28;20088;-86
2022/01/16 06:02:59;;;;;;;146.63;34.35;;;2.90;99.90;;;;;;5095264;28;20062;-86
2022/01/16 06:05:25;;;;;;;;;;;2.20;99.90;;;;;;5114545;28;20051;-85
2022/01/16 06:07:54;;;;;;;145.40;32.80;;;2.30;99.90;;;;;;5095991;28;19950;-86
2022/01/16 06:10:19;;;;;;;131.73;34.17;;;2.20;99.90;;;;;;5113203;28;20047;-87
2022/01/16 06:12:46;;;;;;;136.35;31.92;;;2.30;99.90;;;;;;5133139;27;20456;-85
2022/01/16 06:15:11;;;;;;;;;;;2.60;99.90;;;;;;5125547;27;20052;-87
2022/01/16 06:17:37;;;;;;;129.63;32.22;;;2.50;99.90;;;;;;5097128;27;19924;-85
2022/01/16 06:20:04;;;;;;;131.13;32.63;;;2.30;99.90;;;;;;5095910;27;20134;-87
2022/01/16 06:22:30;;;;;;;131.75;33.45;;;2.40;99.90;;;;;;5134171;27;20126;-88
2022/01/16 06:24:55;;;;;;;146.43;33.97;;;2.40;99.90;;;;;;5115803;27;20126;-87
2022/01/16 06:27:21;;;;;;;139.48;31.98;;;2.40;99.90;;;;;;5115515;27;20054;-86
2022/01/16 06:29:47;;;;;;;145.02;32.95;;;2.40;99.90;;;;;;5132764;27;20134;-87
2022/01/16 06:32:12;;;;;;;146.43;34.17;;;2.40;99.90;;;;;;5114895;27;20046;-86
2022/01/16 06:34:38;;;;;;;142.50;31.67;;;2.40;99.90;;;;;;5081813;27;20054;-86
2022/01/16 06:37:04;;;;;;;152.65;33.35;;;2.40;99.90;;;;;;5114988;27;20133;-86
2022/01/16 06:39:30;;;;;;;138.57;34.40;;;2.50;99.90;;;;;;5110101;28;20043;-85
2022/01/16 06:41:56;;;;;;;162.32;33.70;;;2.50;99.90;;;;;;5094880;28;20066;-88
2022/01/16 06:44:23;;;;;;;151.15;34.30;;;2.50;99.90;;;;;;5092879;28;20067;-87
2022/01/16 06:46:48;;;;;;;127.30;29.40;;;3.70;99.90;;;;;;5112505;28;20127;-88
2022/01/16 06:49:14;;;;;;;166.20;37.45;;;2.50;99.90;;;;;;5112705;28;20138;-87
2022/01/16 06:51:40;;;;;;;126.18;28.00;;;2.50;99.90;;;;;;5095315;28;20085;-86
2022/01/16 06:54:06;;;;;;;132.98;31.48;;;2.50;99.90;;;;;;5112484;28;20047;-87
2022/01/16 06:56:32;;;;;;;137.30;29.70;;;2.50;99.90;;;;;;5113275;28;20047;-86
2022/01/16 06:58:58;;;;;;;;;;;2.50;99.90;;;;;;5092485;27;20678;-86
2022/01/16 07:01:24;;;;;;;130.20;30.58;;;2.50;99.90;;;;;;5114306;27;19938;-85
2022/01/16 07:03:50;;;;;;;;;;;2.80;99.90;;;;;;5132805;27;20456;-86
2022/01/16 07:06:16;;;;;;;118.68;31.10;;;2.50;99.90;;;;;;5097847;27;19963;-85
2022/01/16 07:08:42;;;;;;;;;;;2.60;99.90;;;;;;5097689;27;20365;-86
2022/01/16 07:11:08;;;;;;;127.22;30.48;;;2.50;99.90;;;;;;5107731;27;19927;-85
2022/01/16 07:13:34;;;;;;;114.78;27.70;;;2.60;99.90;;;;;;5132524;27;20054;-84
2022/01/16 07:16:00;;;;;;;129.65;31.65;;;2.60;99.90;;;;;;5126100;27;20051;-87
2022/01/16 07:18:27;;;;;;;129.75;32.58;;;2.80;99.90;;;;;;5078923;27;20073;-87
2022/01/16 07:20:54;;;;;;;138.52;32.15;;;2.60;99.90;;;;;;5115143;27;20047;-86
2022/01/16 07:23:20;;;;;;;124.88;28.67;;;2.60;99.90;;;;;;5114291;27;20126;-88
2022/01/16 07:25:46;;;;;;;131.63;30.20;;;2.70;99.90;;;;;;5114624;27;20180;-87
2022/01/16 07:28:12;;;;;;;148.13;31.77;;;2.70;99.90;;;;;;5132245;27;20476;-84
2022/01/16 07:30:38;;;;;;;127.32;29.23;;;2.70;99.90;;;;;;5113228;27;20110;-85
2022/01/16 07:33:04;;;;;;;;;;;2.80;99.90;;;;;;5133572;27;20035;-86
2022/01/16 07:35:30;;;;;;;120.82;29.95;;;2.80;99.90;;;;;;5110344;27;19926;-85
2022/01/16 07:37:56;;;;;;;;;;;2.80;99.90;;;;;;5129070;27;20634;-86
2022/01/16 07:40:22;;;;;;;138.18;30.85;;;2.80;99.90;;;;;;5093381;28;20010;-86
2022/01/16 07:42:48;;;;;;;125.13;29.13;;;2.80;99.90;;;;;;5079551;27;20047;-86
2022/01/16 07:45:14;;;;;;;119.90;27.17;;;3.30;99.90;;;;;;5111689;27;20047;-85
2022/01/16 07:47:40;;;;;;;118.53;29.10;;;3.40;99.90;;;;;;5113556;27;20039;-87
2022/01/16 07:50:07;;;;;;;149.88;31.63;;;2.90;99.90;;;;;;5132075;27;20051;-86
2022/01/16 07:52:33;;;;;;;126.13;30.88;;;2.90;99.90;;;;;;5117497;27;20506;-87
2022/01/16 07:54:59;;;;;;;;;;;2.90;99.90;;;;;;5114405;27;20050;-87
2022/01/16 07:57:24;;;;;;;129.45;29.95;;;2.90;99.90;;;;;;5113930;27;19927;-86
2022/01/16 07:59:50;;;;;;;139.35;31.50;;;2.90;99.90;;;;;;5112526;27;20089;-84
2022/01/16 08:02:17;;;;;;;141.38;30.05;;;3.40;99.90;;;;;;5113626;27;20050;-87
2022/01/16 08:04:43;;;;;;;127.57;33.22;;;3.00;99.90;;;;;;5113980;27;20103;-86
2022/01/16 08:07:10;;;;;;;118.47;29.23;;;3.00;99.90;;;;;;5109776;28;20043;-82
2022/01/16 08:09:37;;;;;;;128.50;33.53;;;3.00;99.90;;;;;;5111541;28;20051;-86
2022/01/16 08:12:05;;;;;;;118.75;29.13;;;3.80;99.90;;;;;;5093756;28;20126;-84
2022/01/16 08:14:30;;;;;;;123.32;28.73;;;3.00;99.90;;;;;;5091656;28;20214;-86
2022/01/16 08:16:56;;;;;;;124.78;31.30;;;3.10;99.90;;;;;;5111190;28;20499;-86
2022/01/16 08:19:23;;;;;;;126.38;32.60;;;3.10;99.90;;;;;;5092984;28;20054;-88
2022/01/16 08:21:49;;;;;;;132.40;31.30;;;3.10;99.90;;;;;;5093258;28;20044;-86
2022/01/16 08:24:15;;;;;;;127.25;29.73;;;3.20;99.90;;;;;;5126448;27;20051;-86
2022/01/16 08:26:40;;;;;;;136.05;32.08;;;3.20;99.90;;;;;;5113335;27;20043;-87
2022/01/16 08:29:06;;;;;;;115.60;29.55;;;3.50;99.90;;;;;;5092007;28;20537;-87
2022/01/16 08:31:32;;;;;;;131.55;33.55;;;3.30;99.90;;;;;;5092357;28;20521;-87
2022/01/16 08:33:57;;;;;;;116.53;30.60;;;3.50;99.90;;;;;;5125127;27;20050;-87
2022/01/16 08:36:23;;;;;;;120.65;31.08;;;3.30;99.90;;;;;;5096043;27;20112;-86
2022/01/16 08:38:49;;;;;;;112.60;30.15;;;3.30;99.90;;;;;;5113489;27;20122;-87
2022/01/16 08:41:15;;;;;;;118.63;32.38;;;3.30;99.90;;;;;;5131293;27;20051;-81
2022/01/16 08:43:41;;;;;;;115.25;31.33;;;3.40;99.90;;;;;;5106703;28;20043;-86
2022/01/16 08:46:07;;;;;;;125.88;32.67;;;3.40;99.90;;;;;;5097496;28;20051;-86
2022/01/16 08:48:33;;;;;;;109.70;30.10;;;3.40;99.90;;;;;;5075454;28;20059;-86
2022/01/16 08:50:59;;;;;;;122.53;32.78;;;3.40;99.90;;;;;;5076009;28;20055;-87
2022/01/16 08:53:24;;;;;;;111.10;30.67;;;3.60;99.90;;;;;;5092268;28;20050;-85
2022/01/16 08:55:50;;;;;;;118.55;34.75;;;3.50;99.90;;;;;;5092893;28;20055;-86
2022/01/16 08:58:16;;;;;;;103.80;30.75;;;3.80;99.90;;;;;;5091861;28;20152;-82
2022/01/16 09:00:43;;;;;;;112.25;32.67;;;3.50;99.90;;;;;;5123050;28;20043;-87
2022/01/16 09:03:10;;;;;;;111.70;31.83;;;3.60;99.90;;;;;;5113331;28;20058;-87
2022/01/16 09:05:36;;;;;;;115.68;31.42;;;3.60;99.90;;;;;;5130535;28;20035;-87
2022/01/16 09:08:01;;;;;;;127.78;34.42;;;3.60;99.90;;;;;;5113161;28;20095;-88
2022/01/16 09:10:27;;;;;;;105.80;29.90;;;3.60;99.90;;;;;;5094248;28;20058;-87
2022/01/16 09:12:53;;;;;;;104.05;30.27;;;3.60;99.90;;;;;;5093684;28;20047;-87
2022/01/16 09:15:19;;;;;;;;;;;3.60;99.90;;;;;;5111467;28;20051;-86
2022/01/16 09:17:45;;;;;;;96.00;28.63;;;4.10;99.90;;;;;;5113511;28;19952;-85
2022/01/16 09:20:13;;;;;;;99.65;29.70;;;3.90;99.90;;;;;;5096375;28;20063;-88
2022/01/16 09:22:43;;;;;;;99.63;27.85;;;3.70;99.90;;;;;;5107414;28;20108;-87
2022/01/16 09:25:10;;;;;;;99.95;29.35;;;3.80;99.90;;;;;;5110375;28;20077;-85
2022/01/16 09:27:37;;;;;;;122.85;33.97;;;3.80;99.90;;;;;;5092201;28;20039;-86
2022/01/16 09:30:05;;;;;;;106.90;29.38;;;3.80;99.90;;;;;;5108778;28;20097;-86
2022/01/16 09:32:33;;;;;;;101.68;31.33;;;3.90;99.90;;;;;;5110621;28;20047;-88
2022/01/16 09:35:00;;;;;;;99.65;30.38;;;3.90;99.90;;;;;;5093209;28;20108;-86
2022/01/16 09:37:27;;;;;;;93.53;30.85;;;4.40;99.90;;;;;;5112878;28;20444;-86
2022/01/16 09:39:54;;;;;;;114.57;34.75;;;4.40;99.90;;;;;;5115083;28;20044;-87
2022/01/16 09:42:22;;;;;;;83.07;25.52;;;4.00;99.90;;;;;;5121565;28;20073;-82
2022/01/16 09:44:48;;;;;;;89.20;27.83;;;4.30;99.90;;;;;;5068224;28;20040;-86
2022/01/16 09:47:14;;;;;;;91.70;29.08;;;4.10;99.90;;;;;;5100923;28;20067;-85
2022/01/16 09:49:40;;;;;;;;;;;4.10;99.90;;;;;;5106822;28;20107;-86
2022/01/16 09:52:07;;;;;;;79.45;23.80;;;4.10;99.90;;;;;;5130851;28;20017;-87
2022/01/16 09:54:32;;;;;;;86.35;27.98;;;4.20;99.90;;;;;;5098526;28;20055;-86
2022/01/16 09:56:58;;;;;;;90.13;30.10;;;4.50;99.90;;;;;;5114614;28;20043;-88
2022/01/16 09:59:24;;;;;;;85.57;28.30;;;4.40;99.90;;;;;;5111353;28;20047;-85
2022/01/16 10:01:50;;;;;;;73.30;25.83;;;4.20;99.90;;;;;;5092089;28;20054;-86
2022/01/16 10:04:29;;;;;;;76.18;25.58;;;4.20;99.90;;;;;;5106029;28;20047;-85
2022/01/16 10:07:00;;;;;;;86.25;28.73;;;4.30;99.90;;;;;;5102305;28;20071;-84
2022/01/16 10:09:27;;;;;;;79.65;26.73;;;4.30;99.90;;;;;;5109656;28;20051;-86
2022/01/16 10:11:58;;;;;;;86.97;28.63;;;4.30;99.90;;;;;;5095595;28;20086;-86
2022/01/16 10:14:47;;;;;;;69.00;26.73;;;4.30;99.90;;;;;;5076585;28;20101;-85
2022/01/16 10:17:24;;;;;;;75.43;27.20;;;4.40;99.90;;;;;;5095508;28;20066;-87
2022/01/16 10:20:03;;;;;;;90.20;28.42;;;4.80;99.90;;;;;;5120892;27;20043;-86
2022/01/16 10:22:43;;;;;;;81.35;28.85;;;4.40;99.90;;;;;;5133707;27;20136;-87
2022/01/16 10:25:10;;;;;;;78.20;26.45;;;4.40;99.90;;;;;;5133963;27;20051;-87
2022/01/16 10:27:41;;;;;;;73.68;23.95;;;4.50;99.90;;;;;;5133713;27;20069;-84
2022/01/16 10:30:12;;;;;;;70.97;25.85;;;4.60;99.90;;;;;;5107984;27;20058;-86
2022/01/16 10:32:43;;;;;;;66.20;24.42;;;4.50;99.90;;;;;;5109067;28;20130;-85
2022/01/16 10:35:19;;;;;;;67.65;26.05;;;4.60;99.90;;;;;;5113680;28;20551;-87
2022/01/16 10:37:48;;;;;;;65.60;23.67;;;4.60;99.90;;;;;;5094725;28;20058;-87
2022/01/16 10:40:30;;;;;;;66.80;26.88;;;4.60;99.90;;;;;;5120238;27;20039;-87
2022/01/16 10:43:03;;;;;;;54.60;24.02;;;4.60;99.90;;;;;;5123079;27;20058;-88
2022/01/16 10:45:30;;;;;;;63.75;22.13;;;4.70;99.90;;;;;;5103138;27;20527;-88
2022/01/16 10:47:58;;;;;;;62.78;23.83;;;4.70;99.90;;;;;;5119390;27;20052;-88
2022/01/16 10:50:30;;;;;;;67.65;23.05;;;4.70;99.90;;;;;;5077632;27;20063;-88
2022/01/16 10:52:56;;;;;;;61.88;25.27;;;4.70;99.90;;;;;;5116942;27;20055;-90
2022/01/16 10:55:31;;;;;;;63.92;24.23;;;4.80;99.90;;;;;;5092382;27;20054;-89
2022/01/16 10:58:21;;;;;;;58.45;23.55;;;4.80;99.90;;;;;;5111794;27;20130;-88
2022/01/16 11:00:53;;;;;;;59.28;24.65;;;4.70;99.90;;;;;;5074207;27;20376;-89
2022/01/16 11:03:20;;;;;;;60.80;24.77;;;4.80;99.90;;;;;;5108552;27;20047;-87
2022/01/16 11:05:46;;;;;;;51.38;21.23;;;4.80;99.90;;;;;;5101666;27;20047;-85
2022/01/16 11:08:18;;;;;;;64.85;24.75;;;4.90;99.90;;;;;;5107522;27;20039;-89
2022/01/16 11:10:51;;;;;;;63.20;24.65;;;5.00;99.90;;;;;;5108712;27;20066;-90
2022/01/16 11:13:19;;;;;;;61.63;23.58;;;4.90;99.90;;;;;;5109581;27;20039;-84
2022/01/16 11:15:49;;;;;;;56.63;23.25;;;4.90;99.90;;;;;;5087194;28;20056;-89
2022/01/16 11:18:16;;;;;;;57.53;22.42;;;4.90;99.90;;;;;;5121889;27;20105;-90
2022/01/16 11:20:52;;;;;;;55.35;24.88;;;4.90;99.90;;;;;;5130200;27;20088;-85
2022/01/16 11:26:02;;;;;;;56.15;22.60;;;4.90;99.90;;;;;;5094163;27;20078;-89
2022/01/16 11:28:28;;;;;;;48.20;22.63;;;4.90;99.90;;;;;;5122119;27;20043;-87
2022/01/16 11:30:57;;;;;;;46.97;19.65;;;5.00;99.90;;;;;;5122983;27;20135;-87
2022/01/16 11:33:24;;;;;;;52.03;21.27;;;5.00;99.90;;;;;;5127083;27;20203;-89
2022/01/16 11:36:13;;;;;;;55.47;21.38;;;5.10;99.90;;;;;;5111861;27;20739;-91
2022/01/16 11:38:50;;;;;;;55.78;22.40;;;5.00;99.90;;;;;;5110542;27;20058;-87
2022/01/16 11:41:16;;;;;;;;;;;5.00;99.90;;;;;;5100488;27;20133;-89
2022/01/16 11:43:47;;;;;;;53.63;19.55;;;5.00;99.90;;;;;;5080035;28;19981;-90
2022/01/16 11:46:17;;;;;;;47.53;19.23;;;5.10;99.90;;;;;;5101293;28;20070;-90
2022/01/16 11:49:01;;;;;;;51.67;19.77;;;5.10;99.90;;;;;;5092793;28;20047;-90
2022/01/16 11:51:37;;;;;;;45.65;19.00;;;5.10;99.90;;;;;;5095123;27;20036;-87
2022/01/16 11:54:26;;;;;;;48.40;19.75;;;5.00;99.90;;;;;;5105488;27;20079;-89
2022/01/16 11:57:04;;;;;;;49.65;19.15;;;5.10;99.90;;;;;;5120546;27;20186;-91
2022/01/16 11:59:30;;;;;;;43.03;18.33;;;5.10;99.90;;;;;;5122051;27;20050;-91
2022/01/16 12:02:08;;;;;;;45.95;18.77;;;5.10;99.90;;;;;;5111047;27;20055;-90
2022/01/16 12:04:33;;;;;;;39.45;17.10;;;5.10;99.90;;;;;;5095795;28;20104;-84
2022/01/16 12:07:00;;;;;;;47.13;18.30;;;5.20;99.90;;;;;;5092288;28;20044;-90
2022/01/16 12:10:08;;;;;;;37.58;16.70;;;5.20;99.90;;;;;;5095722;27;20089;-90
2022/01/16 12:12:27;;;;;;;41.28;16.77;;;5.20;99.90;;;;;;5092366;28;20048;-89
2022/01/16 12:15:06;;;;;;;32.22;15.50;;;5.20;99.90;;;;;;5096406;28;20754;-85
2022/01/16 12:17:48;;;;;;;40.25;16.92;;;5.30;99.90;;;;;;5104766;27;20057;-88
2022/01/16 12:20:14;;;;;;;35.28;15.07;;;5.30;99.90;;;;;;5114306;27;20046;-89
2022/01/16 12:22:48;;;;;;;38.72;16.52;;;5.40;99.90;;;;;;5107179;28;20040;-90
2022/01/16 12:25:29;;;;;;;33.50;15.98;;;5.30;99.90;;;;;;5111140;28;20051;-90
2022/01/16 12:28:04;;;;;;;31.58;13.23;;;5.30;99.90;;;;;;5113795;27;20040;-90
2022/01/16 12:30:56;;;;;;;29.70;13.43;;;5.40;99.90;;;;;;5091590;28;20048;-89
2022/01/16 12:33:27;;;;;;;33.33;15.80;;;5.40;99.90;;;;;;5093706;28;20519;-90
2022/01/16 12:35:58;;;;;;;34.10;14.63;;;5.40;99.90;;;;;;5093127;28;20079;-90
2022/01/16 12:38:23;;;;;;;26.27;11.95;;;5.40;99.90;;;;;;5096137;28;20051;-89
2022/01/16 12:41:00;;;;;;;26.67;11.18;;;5.50;99.90;;;;;;5076165;28;20054;-89
2022/01/16 12:43:32;;;;;;;25.48;11.05;;;5.60;99.90;;;;;;5093028;28;20040;-90
2022/01/16 12:46:00;;;;;;;22.73;10.82;;;5.50;99.90;;;;;;5091947;28;20047;-90
2022/01/16 12:48:26;;;;;;;25.90;10.35;;;5.70;99.90;;;;;;5111661;28;20122;-88
2022/01/16 12:51:04;;;;;;;25.67;10.75;;;5.60;99.90;;;;;;5088961;28;20048;-86
2022/01/16 12:53:48;;;;;;;23.45;10.27;;;5.60;99.90;;;;;;5083818;28;20477;-88
2022/01/16 12:56:27;;;;;;;22.67;9.88;;;5.70;99.90;;;;;;5090195;28;20497;-90
2022/01/16 12:59:09;;;;;;;22.52;9.98;;;5.70;99.90;;;;;;5089122;28;20050;-89
2022/01/16 13:01:36;;;;;;;26.60;9.63;;;5.70;99.90;;;;;;5089654;28;20052;-90
2022/01/16 13:04:01;;;;;;;28.33;9.32;;;5.80;99.90;;;;;;5085069;28;20048;-91
2022/01/16 13:06:32;;;;;;;22.17;10.18;;;5.80;99.90;;;;;;5073534;28;20055;-85
2022/01/16 13:09:16;;;;;;;23.50;8.95;;;5.80;99.90;;;;;;5085859;28;20048;-86
2022/01/16 13:11:44;;;;;;;23.23;9.13;;;5.90;99.90;;;;;;5086473;28;20040;-87
2022/01/16 13:14:25;;;;;;;27.08;10.40;;;5.90;99.90;;;;;;5088062;28;20062;-90
2022/01/16 13:16:53;;;;;;;26.25;10.38;;;5.90;99.90;;;;;;5082281;28;20057;-90
2022/01/16 13:19:25;;;;;;;20.15;8.10;;;5.90;99.90;;;;;;5070205;28;20040;-88
2022/01/16 13:22:03;;;;;;;26.33;9.50;;;6.00;99.90;;;;;;5069289;28;20064;-90
2022/01/16 13:24:52;;;;;;;21.58;9.50;;;6.00;99.90;;;;;;5069861;28;20399;-89
2022/01/16 13:27:19;;;;;;;23.70;9.45;;;6.00;99.90;;;;;;5056013;28;20052;-91
2022/01/16 13:29:56;;;;;;;17.38;8.07;;;6.00;99.90;;;;;;5071508;28;20091;-89
2022/01/16 13:32:33;;;;;;;20.60;9.18;;;6.00;99.90;;;;;;5075360;28;20044;-92